createdAt,value
2018-06-20T00:00:50.503Z,20.80
2018-06-20T00:03:54.934Z,20.80
2018-06-20T00:06:59.325Z,20.70
2018-06-20T00:10:03.614Z,20.70
2018-06-20T00:13:07.826Z,20.60
2018-06-20T00:16:12.170Z,20.60
2018-06-20T00:19:16.488Z,20.60
2018-06-20T00:22:20.883Z,20.50
2018-06-20T00:25:26.352Z,20.50
2018-06-20T00:28:30.700Z,20.50
2018-06-20T00:31:35.306Z,20.40
2018-06-20T00:34:39.867Z,20.40
2018-06-20T00:37:44.098Z,20.40
2018-06-20T00:40:48.363Z,20.40
2018-06-20T00:43:52.582Z,20.40
2018-06-20T00:46:56.510Z,20.30
2018-06-20T00:50:01.430Z,20.30
2018-06-20T00:53:05.990Z,20.20
2018-06-20T00:56:20.552Z,20.20
2018-06-20T00:59:24.769Z,20.10
2018-06-20T01:02:29.083Z,20.10
2018-06-20T01:05:33.483Z,20.00
2018-06-20T01:08:37.735Z,20.00
2018-06-20T01:11:42.264Z,19.90
2018-06-20T01:14:46.710Z,19.90
2018-06-20T01:17:50.998Z,19.90
2018-06-20T01:20:55.192Z,19.90
2018-06-20T01:23:59.328Z,19.70
2018-06-20T01:27:04.044Z,19.70
2018-06-20T01:30:08.314Z,19.70
2018-06-20T01:33:12.769Z,19.60
2018-06-20T01:36:17.173Z,19.60
2018-06-20T01:39:21.523Z,19.60
2018-06-20T01:42:26.024Z,19.50
2018-06-20T01:45:30.324Z,19.50
2018-06-20T01:48:34.601Z,19.40
2018-06-20T01:51:38.955Z,19.40
2018-06-20T01:54:43.172Z,19.40
2018-06-20T01:57:47.487Z,19.40
2018-06-20T02:00:51.717Z,19.40
2018-06-20T02:03:55.852Z,19.40
2018-06-20T02:07:00.078Z,19.30
2018-06-20T02:10:04.404Z,19.30
2018-06-20T02:13:08.656Z,19.20
2018-06-20T02:16:12.937Z,19.10
2018-06-20T02:19:17.275Z,19.20
2018-06-20T02:22:21.619Z,19.10
2018-06-20T02:25:25.789Z,19.10
2018-06-20T02:28:30.102Z,19.10
2018-06-20T02:31:34.439Z,19.10
2018-06-20T02:34:38.795Z,19.10
2018-06-20T02:37:43.149Z,19.10
2018-06-20T02:40:47.320Z,19.10
2018-06-20T02:43:51.564Z,19.00
2018-06-20T02:46:56.293Z,19.00
2018-06-20T02:50:00.727Z,19.00
2018-06-20T02:53:04.899Z,18.90
2018-06-20T02:56:09.266Z,18.90
2018-06-20T02:59:13.611Z,18.90
2018-06-20T03:02:17.792Z,18.90
2018-06-20T03:05:21.999Z,18.90
2018-06-20T03:08:26.342Z,18.90
2018-06-20T03:11:30.992Z,18.90
2018-06-20T03:14:35.269Z,18.80
2018-06-20T03:17:39.631Z,18.80
2018-06-20T03:20:44.547Z,18.80
2018-06-20T03:23:48.887Z,18.70
2018-06-20T03:26:53.184Z,18.70
2018-06-20T03:29:57.386Z,18.70
2018-06-20T03:33:01.675Z,18.80
2018-06-20T03:36:05.981Z,18.70
2018-06-20T03:39:10.803Z,18.80
2018-06-20T03:42:15.213Z,18.80
2018-06-20T03:45:19.511Z,18.80
2018-06-20T03:48:23.903Z,18.80
2018-06-20T03:51:28.170Z,18.80
2018-06-20T03:54:32.631Z,18.80
2018-06-20T03:57:37.116Z,18.80
2018-06-20T04:00:41.454Z,18.80
2018-06-20T04:03:45.871Z,18.80
2018-06-20T04:06:50.211Z,18.80
2018-06-20T04:09:54.368Z,18.90
2018-06-20T04:12:58.812Z,19.00
2018-06-20T04:16:03.122Z,19.00
2018-06-20T04:19:07.498Z,19.00
2018-06-20T04:22:11.630Z,19.10
2018-06-20T04:25:16.058Z,19.20
2018-06-20T04:28:20.290Z,19.30
2018-06-20T04:31:24.469Z,19.30
2018-06-20T04:34:28.786Z,19.40
2018-06-20T04:37:33.158Z,19.50
2018-06-20T04:43:41.026Z,19.60
2018-06-20T04:46:45.443Z,19.70
2018-06-20T04:49:49.767Z,19.90
2018-06-20T04:52:54.132Z,19.90
2018-06-20T04:55:58.734Z,20.00
2018-06-20T04:59:02.878Z,20.20
2018-06-20T05:02:07.402Z,20.30
2018-06-20T05:05:12.061Z,20.50
2018-06-20T05:08:16.473Z,20.60
2018-06-20T05:11:20.724Z,20.80
2018-06-20T05:14:25.012Z,20.90
2018-06-20T05:17:29.247Z,21.10
2018-06-20T05:20:34.136Z,21.20
2018-06-20T05:23:38.387Z,21.20
2018-06-20T05:26:42.677Z,21.40
2018-06-20T05:29:46.931Z,21.60
2018-06-20T05:32:51.329Z,21.70
2018-06-20T05:35:55.617Z,21.90
2018-06-20T05:39:00.064Z,22.10
2018-06-20T05:42:04.293Z,22.20
2018-06-20T05:45:08.485Z,22.50
2018-06-20T05:48:12.700Z,22.60
2018-06-20T05:51:17.998Z,22.70
2018-06-20T05:54:22.295Z,22.70
2018-06-20T05:57:26.609Z,22.80
2018-06-20T06:00:30.821Z,23.00
2018-06-20T06:03:35.282Z,23.20
2018-06-20T06:06:39.578Z,23.40
2018-06-20T06:09:43.779Z,23.60
2018-06-20T06:12:48.347Z,24.00
2018-06-20T06:15:52.717Z,24.40
2018-06-20T06:18:57.706Z,24.90
2018-06-20T06:22:02.109Z,25.60
2018-06-20T06:25:06.451Z,26.40
2018-06-20T06:28:11.056Z,26.90
2018-06-20T06:31:15.384Z,27.70
2018-06-20T06:34:19.711Z,28.40
2018-06-20T06:37:24.007Z,28.50
2018-06-20T06:40:28.411Z,29.20
2018-06-20T06:43:32.896Z,29.90
2018-06-20T06:46:37.317Z,30.70
2018-06-20T06:49:41.964Z,31.30
2018-06-20T06:52:46.240Z,31.80
2018-06-20T06:55:50.611Z,31.80
2018-06-20T06:58:54.684Z,32.30
2018-06-20T07:01:58.973Z,33.20
2018-06-20T07:05:03.274Z,34.20
2018-06-20T07:11:11.200Z,35.80
2018-06-20T07:14:15.490Z,36.20
2018-06-20T07:17:19.703Z,36.60
2018-06-20T07:20:24.014Z,37.30
2018-06-20T07:23:28.340Z,37.90
2018-06-20T07:26:32.740Z,38.80
2018-06-20T07:29:36.985Z,39.40
2018-06-20T07:32:41.462Z,39.30
2018-06-20T07:35:45.381Z,38.60
2018-06-20T07:38:49.288Z,38.00
2018-06-20T07:41:53.224Z,37.50
2018-06-20T07:44:57.825Z,36.80
2018-06-20T07:48:02.101Z,36.30
2018-06-20T07:51:06.431Z,35.60
2018-06-20T07:54:10.729Z,34.90
2018-06-20T07:57:15.236Z,34.50
2018-06-20T08:00:24.411Z,34.30
2018-06-20T08:03:33.807Z,33.90
2018-06-20T08:06:43.241Z,33.40
2018-06-20T08:09:52.454Z,33.00
2018-06-20T08:13:01.883Z,32.50
2018-06-20T08:16:11.359Z,32.10
2018-06-20T08:19:20.907Z,31.80
2018-06-20T08:22:25.123Z,31.60
2018-06-20T08:25:29.399Z,31.20
2018-06-20T08:28:33.742Z,31.00
2018-06-20T08:31:38.030Z,30.80
2018-06-20T08:34:42.352Z,30.70
2018-06-20T08:37:46.755Z,30.70
2018-06-20T08:40:51.162Z,30.50
2018-06-20T08:43:55.517Z,30.50
2018-06-20T08:46:59.430Z,30.50
2018-06-20T08:50:04.005Z,30.30
2018-06-20T08:53:08.535Z,30.30
2018-06-20T08:56:12.773Z,30.20
2018-06-20T08:59:17.075Z,30.20
2018-06-20T09:02:21.430Z,30.20
2018-06-20T09:05:30.910Z,30.20
2018-06-20T09:08:40.564Z,30.20
2018-06-20T09:11:50.208Z,30.20
2018-06-20T09:14:59.748Z,30.20
2018-06-20T09:18:09.311Z,30.10
2018-06-20T09:21:13.646Z,30.10
2018-06-20T09:24:17.963Z,29.90
2018-06-20T09:27:22.244Z,30.00
2018-06-20T09:30:26.702Z,30.10
2018-06-20T09:33:31.039Z,30.10
2018-06-20T09:36:35.414Z,30.10
2018-06-20T09:39:40.134Z,30.10
2018-06-20T09:42:44.516Z,29.90
2018-06-20T09:45:48.916Z,30.00
2018-06-20T09:48:53.151Z,30.00
2018-06-20T09:51:57.839Z,29.80
2018-06-20T09:55:02.407Z,29.90
2018-06-20T09:58:06.925Z,30.10
2018-06-20T10:01:16.544Z,30.30
2018-06-20T10:04:26.085Z,30.50
2018-06-20T10:07:35.410Z,30.40
2018-06-20T10:10:44.979Z,30.40
2018-06-20T10:13:50.580Z,30.40
2018-06-20T10:16:55.716Z,30.30
2018-06-20T10:19:59.896Z,30.40
2018-06-20T10:23:04.230Z,30.50
2018-06-20T10:26:08.554Z,30.50
2018-06-20T10:29:12.843Z,30.20
2018-06-20T10:32:17.149Z,30.10
2018-06-20T10:35:21.734Z,30.10
2018-06-20T10:38:26.059Z,30.20
2018-06-20T10:41:35.611Z,30.50
2018-06-20T10:44:39.939Z,30.60
2018-06-20T10:47:45.468Z,30.80
2018-06-20T10:50:49.714Z,30.90
2018-06-20T10:53:54.108Z,30.80
2018-06-20T10:57:03.538Z,30.80
2018-06-20T11:00:12.821Z,30.40
2018-06-20T11:03:22.373Z,30.10
2018-06-20T11:06:31.853Z,30.20
2018-06-20T11:09:41.256Z,30.30
2018-06-20T11:13:17.848Z,30.40
2018-06-20T11:16:22.287Z,30.50
2018-06-20T11:19:27.043Z,30.20
2018-06-20T11:22:31.299Z,30.40
2018-06-20T11:25:35.984Z,30.40
2018-06-20T11:28:40.379Z,30.50
2018-06-20T11:31:46.089Z,30.60
2018-06-20T11:34:50.549Z,30.60
2018-06-20T11:37:54.869Z,30.40
2018-06-20T11:40:59.203Z,30.40
2018-06-20T11:44:03.894Z,30.30
2018-06-20T11:47:13.398Z,30.10
2018-06-20T11:50:17.677Z,29.90
2018-06-20T11:53:22.037Z,30.10
2018-06-20T11:56:26.007Z,30.20
2018-06-20T11:59:34.994Z,30.20
2018-06-20T12:02:44.615Z,30.40
2018-06-20T12:05:54.119Z,30.50
2018-06-20T12:09:03.512Z,30.50
2018-06-20T12:15:22.114Z,30.10
2018-06-20T12:21:40.401Z,30.40
2018-06-20T12:24:49.681Z,30.60
2018-06-20T12:27:58.994Z,30.50
2018-06-20T12:31:08.447Z,30.50
2018-06-20T12:34:18.029Z,30.50
2018-06-20T12:37:27.519Z,30.50
2018-06-20T12:40:36.944Z,30.60
2018-06-20T12:43:46.321Z,30.60
2018-06-20T12:46:54.268Z,30.50
2018-06-20T12:50:01.638Z,30.50
2018-06-20T12:53:05.911Z,30.50
2018-06-20T12:56:10.334Z,30.20
2018-06-20T12:59:14.987Z,30.20
2018-06-20T13:02:19.236Z,30.40
2018-06-20T13:05:23.566Z,30.50
2018-06-20T13:08:27.741Z,30.60
2018-06-20T13:11:32.247Z,30.60
2018-06-20T13:14:36.866Z,30.20
2018-06-20T13:17:41.183Z,30.20
2018-06-20T13:20:45.439Z,30.20
2018-06-20T13:23:50.370Z,30.30
2018-06-20T13:26:54.906Z,30.50
2018-06-20T13:30:04.297Z,30.60
2018-06-20T13:33:13.646Z,30.50
2018-06-20T13:39:31.916Z,30.50
2018-06-20T13:42:41.366Z,30.30
2018-06-20T13:45:50.754Z,30.00
2018-06-20T13:48:56.813Z,30.00
2018-06-20T13:52:01.249Z,30.00
2018-06-20T13:55:05.689Z,29.90
2018-06-20T13:58:14.215Z,30.00
2018-06-20T14:01:18.693Z,30.10
2018-06-20T14:04:22.887Z,30.20
2018-06-20T14:07:27.093Z,30.30
2018-06-20T14:10:31.194Z,30.30
2018-06-20T14:13:35.813Z,30.50
2018-06-20T14:16:40.223Z,30.50
2018-06-20T14:19:49.901Z,30.30
2018-06-20T14:22:54.356Z,30.30
2018-06-20T14:25:58.882Z,30.30
2018-06-20T14:29:03.408Z,30.30
2018-06-20T14:35:21.887Z,30.20
2018-06-20T14:38:31.491Z,30.30
2018-06-20T14:41:41.413Z,30.30
2018-06-20T14:44:45.647Z,30.40
2018-06-20T14:47:49.913Z,30.60
2018-06-20T14:50:54.450Z,30.60
2018-06-20T14:53:58.617Z,30.70
2018-06-20T14:57:03.479Z,30.70
2018-06-20T15:00:07.960Z,30.80
2018-06-20T15:03:12.158Z,30.80
2018-06-20T15:06:16.581Z,30.90
2018-06-20T15:09:20.950Z,30.90
2018-06-20T15:12:25.343Z,30.90
2018-06-20T15:15:29.474Z,30.70
2018-06-20T15:18:33.847Z,30.70
2018-06-20T15:21:38.074Z,30.70
2018-06-20T15:24:42.506Z,30.80
2018-06-20T15:27:52.040Z,30.70
2018-06-20T15:31:01.564Z,30.80
2018-06-20T15:34:11.069Z,30.80
2018-06-20T15:37:20.512Z,30.40
2018-06-20T15:40:24.907Z,30.20
2018-06-20T15:43:29.432Z,30.30
2018-06-20T15:46:33.745Z,30.50
2018-06-20T15:49:38.294Z,30.40
2018-06-20T15:52:43.139Z,30.50
2018-06-20T15:55:47.421Z,30.30
2018-06-20T15:58:51.713Z,30.40
2018-06-20T16:01:56.103Z,30.40
2018-06-20T16:05:01.413Z,30.50
2018-06-20T16:08:06.243Z,30.50
2018-06-20T16:11:10.860Z,30.40
2018-06-20T16:14:20.665Z,30.50
2018-06-20T16:17:25.539Z,30.60
2018-06-20T16:20:35.221Z,30.50
2018-06-20T16:23:44.858Z,30.40
2018-06-20T16:26:54.580Z,30.40
2018-06-20T16:30:36.552Z,30.40
2018-06-20T16:33:43.982Z,30.20
2018-06-20T16:36:48.641Z,29.90
2018-06-20T16:39:56.583Z,29.70
2018-06-20T16:43:05.243Z,29.70
2018-06-20T16:46:10.568Z,29.90
2018-06-20T16:49:15.075Z,29.90
2018-06-20T16:52:20.055Z,30.00
2018-06-20T16:55:24.939Z,29.90
2018-06-20T16:58:29.460Z,29.70
2018-06-20T17:04:42.539Z,29.60
2018-06-20T17:07:47.085Z,29.40
2018-06-20T17:10:51.552Z,29.20
2018-06-20T17:14:01.140Z,29.20
2018-06-20T17:17:10.683Z,29.10
2018-06-20T17:20:20.076Z,29.10
2018-06-20T17:23:29.483Z,29.00
2018-06-20T17:26:33.906Z,29.00
2018-06-20T17:32:43.705Z,28.90
2018-06-20T17:35:47.886Z,28.90
2018-06-20T17:38:52.462Z,28.80
2018-06-20T17:41:57.052Z,28.70
2018-06-20T17:45:01.451Z,28.60
2018-06-20T17:48:06.317Z,28.70
2018-06-20T17:51:10.711Z,28.70
2018-06-20T17:54:15.986Z,28.60
2018-06-20T18:00:24.730Z,28.40
2018-06-20T18:03:28.960Z,28.20
2018-06-20T18:06:38.885Z,28.20
2018-06-20T18:09:48.790Z,28.10
2018-06-20T18:12:55.821Z,28.10
2018-06-20T18:16:05.038Z,28.10
2018-06-20T18:19:09.197Z,28.00
2018-06-20T18:22:13.486Z,28.00
2018-06-20T18:25:18.143Z,27.90
2018-06-20T18:28:23.027Z,27.90
2018-06-20T18:31:27.754Z,27.80
2018-06-20T18:34:32.339Z,27.80
2018-06-20T18:37:36.885Z,27.80
2018-06-20T18:40:41.561Z,27.70
2018-06-20T18:43:46.205Z,27.70
2018-06-20T18:46:50.492Z,27.70
2018-06-20T18:49:54.760Z,27.60
2018-06-20T18:52:59.218Z,27.60
2018-06-20T18:56:03.489Z,27.60
2018-06-20T18:59:13.186Z,27.50
2018-06-20T19:02:22.659Z,27.40
2018-06-20T19:05:31.929Z,27.40
2018-06-20T19:08:41.607Z,27.30
2018-06-20T19:11:46.533Z,27.30
2018-06-20T19:14:50.826Z,27.30
2018-06-20T19:17:55.487Z,27.20
2018-06-20T19:20:59.877Z,27.20
2018-06-20T19:24:04.233Z,27.10
2018-06-20T19:27:08.584Z,27.10
2018-06-20T19:30:13.005Z,27.00
2018-06-20T19:33:23.042Z,27.00
2018-06-20T19:36:27.511Z,27.00
2018-06-20T19:39:36.899Z,26.90
2018-06-20T19:42:40.942Z,26.90
2018-06-20T19:45:45.480Z,26.70
2018-06-20T19:48:49.899Z,26.60
2018-06-20T19:51:54.318Z,26.50
2018-06-20T19:54:58.786Z,26.50
2018-06-20T20:01:06.729Z,26.30
2018-06-20T20:04:12.160Z,26.20
2018-06-20T20:07:16.760Z,26.10
2018-06-20T20:10:21.643Z,26.00
2018-06-20T20:13:26.072Z,25.90
2018-06-20T20:16:30.760Z,25.80
2018-06-20T20:19:35.299Z,25.70
2018-06-20T20:25:43.651Z,25.50
2018-06-20T20:28:48.168Z,25.50
2018-06-20T20:31:52.530Z,25.40
2018-06-20T20:34:56.964Z,25.30
2018-06-20T20:38:01.327Z,25.20
2018-06-20T20:41:05.620Z,25.20
2018-06-20T20:44:10.009Z,25.10
2018-06-20T20:47:14.325Z,25.00
2018-06-20T20:50:18.924Z,25.00
2018-06-20T20:53:23.183Z,24.90
2018-06-20T20:56:27.586Z,24.90
2018-06-20T20:59:31.843Z,24.80
2018-06-20T21:02:36.219Z,24.80
2018-06-20T21:05:40.930Z,24.60
2018-06-20T21:08:45.243Z,24.60
2018-06-20T21:11:49.609Z,24.50
2018-06-20T21:14:53.881Z,24.40
2018-06-20T21:17:58.749Z,24.40
2018-06-20T21:21:03.080Z,24.40
2018-06-20T21:24:07.287Z,24.30
2018-06-20T21:27:11.551Z,24.30
2018-06-20T21:30:15.603Z,24.30
2018-06-20T21:33:19.628Z,24.20
2018-06-20T21:36:23.902Z,24.10
2018-06-20T21:39:28.334Z,24.10
2018-06-20T21:42:32.731Z,24.00
2018-06-20T21:45:36.847Z,24.00
2018-06-20T21:48:41.288Z,23.90
2018-06-20T21:51:45.418Z,23.90
2018-06-20T21:54:49.619Z,23.80
2018-06-20T21:57:53.965Z,23.80
2018-06-20T22:00:58.276Z,23.80
2018-06-20T22:04:02.768Z,23.70
2018-06-20T22:07:07.059Z,23.70
2018-06-20T22:10:11.441Z,23.60
2018-06-20T22:13:15.921Z,23.60
2018-06-20T22:16:20.250Z,23.70
2018-06-20T22:19:24.385Z,23.70
2018-06-20T22:22:28.481Z,23.70
2018-06-20T22:25:33.032Z,23.70
2018-06-20T22:28:37.383Z,23.60
2018-06-20T22:31:41.989Z,23.50
2018-06-20T22:37:50.104Z,23.40
2018-06-20T22:40:54.419Z,23.40
2018-06-20T22:43:58.711Z,23.40
2018-06-20T22:47:03.106Z,23.30
2018-06-20T22:50:07.571Z,23.30
2018-06-20T22:53:11.697Z,23.30
2018-06-20T22:56:15.803Z,23.20
2018-06-20T22:59:19.865Z,23.20
2018-06-20T23:05:28.189Z,23.10
2018-06-20T23:08:32.518Z,23.00
2018-06-20T23:11:41.943Z,22.90
2018-06-20T23:14:46.139Z,22.90
2018-06-20T23:17:50.428Z,22.90
2018-06-20T23:20:54.938Z,22.90
2018-06-20T23:23:59.113Z,22.90
2018-06-20T23:27:03.603Z,22.80
2018-06-20T23:30:08.043Z,22.80
2018-06-20T23:33:12.277Z,22.70
2018-06-20T23:36:16.741Z,22.70
2018-06-20T23:39:21.093Z,22.70
2018-06-20T23:42:25.451Z,22.70
2018-06-20T23:45:29.932Z,22.60
2018-06-20T23:48:34.360Z,22.60
2018-06-20T23:51:38.571Z,22.50
2018-06-20T23:54:43.113Z,22.50
2018-06-20T23:57:47.438Z,22.40
